Time;durP1;ratioP1;P1;durP2;ratioP2;P2;SDS_P1;SDS_P2;PMS_P1;PMS_P2;Temp;Humidity;BMP_temperature;BMP_pressure;BME280_temperature;BME280_humidity;BME280_pressure;Samples;Min_cycle;Max_cycle;Signal;HPM_P1;HPM_P2
2021/03/30 00:02:24;;;;;;;9.03;2.23;;;9.80;50.50;;;;;;4974874;28;20467;-80
2021/03/30 00:04:50;;;;;;;3.43;1.70;;;9.80;50.60;;;;;;4970032;28;20573;-81
2021/03/30 00:07:17;;;;;;;3.50;1.80;;;9.70;50.60;;;;;;4971115;28;20082;-80
2021/03/30 00:09:43;;;;;;;9.43;2.27;;;9.70;50.70;;;;;;4962352;28;20034;-79
2021/03/30 00:12:09;;;;;;;6.87;2.43;;;9.50;50.90;;;;;;4973383;28;20023;-80
2021/03/30 00:14:35;;;;;;;5.23;2.47;;;9.50;51.20;;;;;;4966348;28;20049;-79
2021/03/30 00:17:01;;;;;;;5.07;2.00;;;9.40;51.40;;;;;;4960911;28;20448;-80
2021/03/30 00:19:27;;;;;;;6.37;2.03;;;9.40;51.80;;;;;;4977690;28;20031;-80
2021/03/30 00:21:52;;;;;;;5.57;2.10;;;9.40;51.80;;;;;;4973421;28;20438;-80
2021/03/30 00:24:18;;;;;;;4.40;1.50;;;9.40;51.40;;;;;;4977285;28;20172;-79
2021/03/30 00:26:44;;;;;;;6.37;2.23;;;9.50;51.50;;;;;;4977728;28;20030;-80
2021/03/30 00:29:09;;;;;;;4.73;2.27;;;9.50;51.60;;;;;;4978374;28;20061;-79
2021/03/30 00:31:35;;;;;;;8.13;2.90;;;9.40;51.60;;;;;;4994311;28;20558;-80
2021/03/30 00:34:01;;;;;;;6.87;2.30;;;9.40;51.90;;;;;;4978088;28;20022;-81
2021/03/30 00:36:27;;;;;;;5.20;2.20;;;9.30;52.00;;;;;;4977638;28;20031;-80
2021/03/30 00:38:52;;;;;;;5.20;2.40;;;9.40;52.00;;;;;;4977721;28;20043;-80
2021/03/30 00:41:18;;;;;;;3.90;2.00;;;9.30;52.20;;;;;;4969744;28;20435;-81
2021/03/30 00:43:44;;;;;;;9.90;2.83;;;9.30;52.20;;;;;;4975579;28;20120;-81
2021/03/30 00:46:14;;;;;;;6.23;2.23;;;9.30;52.20;;;;;;4991669;28;20427;-82
2021/03/30 00:48:41;;;;;;;7.87;3.50;;;9.20;52.30;;;;;;4985239;28;20039;-81
2021/03/30 00:51:07;;;;;;;7.23;2.37;;;9.20;52.30;;;;;;4973319;28;20089;-81
2021/03/30 00:53:33;;;;;;;11.17;4.27;;;9.10;52.60;;;;;;4974645;28;20392;-80
2021/03/30 00:55:59;;;;;;;7.20;4.00;;;9.10;52.80;;;;;;4971029;28;20031;-80
2021/03/30 00:58:25;;;;;;;7.90;2.90;;;9.10;52.80;;;;;;4976642;28;20113;-80
2021/03/30 01:00:51;;;;;;;7.33;2.70;;;9.00;52.50;;;;;;4977706;28;20488;-80
2021/03/30 01:03:17;;;;;;;6.10;3.03;;;9.00;52.80;;;;;;4973878;28;20530;-80
2021/03/30 01:05:42;;;;;;;6.70;3.10;;;9.00;53.10;;;;;;4968681;28;20050;-80
2021/03/30 01:08:08;;;;;;;8.80;3.37;;;9.00;53.10;;;;;;4993014;28;20076;-81
2021/03/30 01:10:54;;;;;;;11.47;3.57;;;9.00;52.90;;;;;;4974874;28;20050;-81
2021/03/30 01:13:40;;;;;;;5.97;2.63;;;9.00;52.90;;;;;;4966741;28;20070;-81
2021/03/30 01:16:11;;;;;;;8.17;3.17;;;8.90;53.00;;;;;;4962696;28;20382;-81
2021/03/30 01:18:56;;;;;;;10.17;2.97;;;8.80;53.20;;;;;;4973333;28;20020;-82
2021/03/30 01:21:43;;;;;;;8.20;3.47;;;8.80;53.40;;;;;;4958157;28;20038;-81
2021/03/30 01:24:34;;;;;;;7.87;2.87;;;8.80;53.40;;;;;;4971433;28;21720;-81
2021/03/30 01:27:04;;;;;;;6.50;2.60;;;8.80;53.40;;;;;;4972800;28;20058;-80
2021/03/30 01:29:48;;;;;;;6.20;2.50;;;8.80;53.20;;;;;;4970568;28;20023;-81
2021/03/30 01:32:16;;;;;;;6.63;3.30;;;8.80;53.30;;;;;;4973811;28;20023;-81
2021/03/30 01:34:45;;;;;;;9.70;2.67;;;8.70;53.40;;;;;;4966630;28;20099;-81
2021/03/30 01:37:13;;;;;;;10.03;3.07;;;8.70;53.60;;;;;;4983831;28;20372;-81
2021/03/30 01:39:40;;;;;;;7.00;2.90;;;8.70;53.60;;;;;;4970444;28;20027;-81
2021/03/30 01:42:09;;;;;;;6.40;2.70;;;8.60;53.60;;;;;;4966634;28;20532;-81
2021/03/30 01:44:35;;;;;;;8.33;3.03;;;8.50;53.90;;;;;;4966569;28;20472;-81
2021/03/30 01:47:01;;;;;;;10.73;3.50;;;8.60;54.00;;;;;;4973448;28;20031;-81
2021/03/30 01:49:28;;;;;;;8.00;2.63;;;8.60;53.80;;;;;;4972380;28;20022;-80
2021/03/30 01:51:56;;;;;;;12.70;3.37;;;8.60;53.70;;;;;;4974706;28;20051;-80
2021/03/30 01:54:23;;;;;;;6.17;2.77;;;8.60;53.90;;;;;;4973801;28;20023;-80
2021/03/30 01:56:53;;;;;;;5.20;3.00;;;8.40;54.20;;;;;;4972132;28;20031;-80
2021/03/30 01:59:19;;;;;;;5.87;3.33;;;8.40;54.50;;;;;;4972000;28;20031;-80
2021/03/30 02:01:46;;;;;;;9.07;3.50;;;8.40;54.40;;;;;;4969569;28;20035;-80
2021/03/30 02:04:13;;;;;;;16.03;3.23;;;8.40;54.40;;;;;;4973323;28;20027;-80
2021/03/30 02:06:42;;;;;;;5.93;2.77;;;8.40;54.40;;;;;;4973031;28;20100;-81
2021/03/30 02:09:14;;;;;;;14.20;4.50;;;8.30;54.40;;;;;;4988596;28;20514;-80
2021/03/30 02:11:50;;;;;;;7.63;2.65;;;8.20;54.40;;;;;;4966929;28;20038;-81
2021/03/30 02:14:17;;;;;;;6.67;2.80;;;8.20;54.70;;;;;;4985490;28;20027;-80
2021/03/30 02:17:02;;;;;;;9.77;3.30;;;8.30;54.50;;;;;;4965979;28;20038;-80
2021/03/30 02:19:47;;;;;;;3.97;2.13;;;8.20;54.70;;;;;;4972986;28;20034;-80
2021/03/30 02:22:30;;;;;;;5.67;1.90;;;8.20;54.80;;;;;;4973088;28;20541;-80
2021/03/30 02:24:58;;;;;;;;;;;8.20;54.60;;;;;;4963804;28;20031;-80
2021/03/30 02:27:25;;;;;;;10.73;1.57;;;8.20;54.30;;;;;;4970284;28;20354;-81
2021/03/30 02:29:54;;;;;;;4.63;2.10;;;8.20;54.40;;;;;;4969307;28;20039;-80
2021/03/30 02:32:22;;;;;;;8.13;2.00;;;8.20;54.60;;;;;;4970900;28;20030;-80
2021/03/30 02:34:50;;;;;;;9.40;2.60;;;8.20;54.40;;;;;;4968720;28;20032;-80
2021/03/30 02:37:18;;;;;;;7.90;3.00;;;8.20;54.90;;;;;;4985985;28;20043;-81
2021/03/30 02:39:44;;;;;;;5.50;2.47;;;8.10;54.70;;;;;;4971492;28;20034;-82
2021/03/30 02:42:10;;;;;;;4.73;2.27;;;7.90;55.00;;;;;;4972413;28;20035;-81
2021/03/30 02:44:38;;;;;;;8.13;2.90;;;7.90;55.20;;;;;;4972501;28;20029;-81
2021/03/30 02:47:04;;;;;;;8.33;2.47;;;7.90;55.30;;;;;;4969781;28;20431;-82
2021/03/30 02:49:30;;;;;;;8.90;2.47;;;7.90;55.20;;;;;;4971534;28;20034;-82
2021/03/30 02:51:58;;;;;;;7.43;2.40;;;7.90;55.20;;;;;;4964869;28;20105;-81
2021/03/30 02:54:26;;;;;;;7.93;2.13;;;7.90;55.20;;;;;;4989217;28;20387;-79
2021/03/30 02:56:54;;;;;;;4.13;1.60;;;7.90;55.30;;;;;;4968947;28;20022;-80
2021/03/30 02:59:20;;;;;;;5.23;1.60;;;7.90;55.40;;;;;;4968290;28;20035;-80
2021/03/30 03:01:50;;;;;;;5.60;1.83;;;8.00;55.30;;;;;;4969539;28;20395;-80
2021/03/30 03:04:16;;;;;;;4.67;1.67;;;8.00;55.30;;;;;;4972214;28;20039;-80
2021/03/30 03:06:43;;;;;;;6.70;2.43;;;8.10;55.20;;;;;;4966123;28;20102;-80
2021/03/30 03:09:11;;;;;;;4.73;1.80;;;8.10;55.00;;;;;;4971132;28;20530;-80
2021/03/30 03:11:40;;;;;;;5.83;1.50;;;8.10;55.00;;;;;;4977545;28;20085;-81
2021/03/30 03:14:08;;;;;;;5.60;1.40;;;8.10;55.00;;;;;;4972282;28;20019;-79
2021/03/30 03:16:35;;;;;;;3.17;1.60;;;8.00;55.00;;;;;;4970179;28;20101;-80
2021/03/30 03:19:04;;;;;;;3.60;1.70;;;7.90;55.10;;;;;;4969699;28;20161;-80
2021/03/30 03:21:30;;;;;;;2.70;1.67;;;7.90;55.00;;;;;;4973727;28;20173;-80
2021/03/30 03:23:56;;;;;;;9.03;2.70;;;7.90;55.10;;;;;;4972051;28;20129;-81
2021/03/30 03:26:22;;;;;;;3.70;1.83;;;7.80;55.60;;;;;;4971392;28;20497;-80
2021/03/30 03:28:48;;;;;;;2.97;1.70;;;7.80;55.20;;;;;;4966557;28;20023;-80
2021/03/30 03:31:15;;;;;;;6.27;2.27;;;7.70;55.40;;;;;;4959451;28;20054;-80
2021/03/30 03:33:42;;;;;;;5.40;2.03;;;7.70;55.50;;;;;;4964666;28;20023;-80
2021/03/30 03:36:11;;;;;;;2.10;1.47;;;7.70;55.50;;;;;;4968442;28;20027;-80
2021/03/30 03:38:42;;;;;;;7.23;2.03;;;7.70;55.60;;;;;;4965729;28;20050;-81
2021/03/30 03:41:18;;;;;;;5.43;2.30;;;7.60;55.60;;;;;;4963493;28;20042;-79
2021/03/30 03:43:44;;;;;;;5.27;2.67;;;7.50;55.80;;;;;;4969829;28;20070;-80
2021/03/30 03:46:16;;;;;;;8.67;2.63;;;7.50;56.10;;;;;;4971882;28;20476;-80
2021/03/30 03:48:42;;;;;;;8.48;1.90;;;7.50;56.30;;;;;;4971696;28;20034;-80
2021/03/30 03:51:09;;;;;;;4.87;2.57;;;7.40;56.20;;;;;;4968142;28;20081;-82
2021/03/30 03:53:37;;;;;;;10.03;2.87;;;7.40;56.40;;;;;;4957872;28;20031;-81
2021/03/30 03:56:04;;;;;;;8.60;2.60;;;7.40;56.50;;;;;;4983447;28;20023;-81
2021/03/30 03:58:46;;;;;;;5.90;2.73;;;7.40;56.30;;;;;;4969725;28;20078;-81
2021/03/30 04:01:19;;;;;;;7.90;2.40;;;7.40;56.40;;;;;;4972184;28;20063;-81
2021/03/30 04:03:52;;;;;;;6.43;2.57;;;7.40;56.30;;;;;;4970500;28;20078;-81
2021/03/30 04:06:22;;;;;;;9.43;3.00;;;7.40;56.40;;;;;;4966006;28;20423;-81
2021/03/30 04:08:56;;;;;;;4.87;2.97;;;7.40;56.50;;;;;;4967605;28;20047;-81
2021/03/30 04:11:23;;;;;;;11.53;4.37;;;7.40;56.50;;;;;;4980191;28;20030;-81
2021/03/30 04:13:51;;;;;;;9.90;3.80;;;7.50;56.40;;;;;;4971403;28;20414;-81
2021/03/30 04:16:17;;;;;;;8.60;3.73;;;7.60;56.50;;;;;;4959829;28;20024;-80
2021/03/30 04:18:44;;;;;;;15.63;4.77;;;7.60;56.50;;;;;;4957713;28;20387;-82
2021/03/30 04:21:20;;;;;;;8.27;2.93;;;7.50;56.60;;;;;;4952994;28;20089;-83
2021/03/30 04:23:47;;;;;;;9.10;2.93;;;7.50;56.70;;;;;;4968418;28;20031;-83
2021/03/30 04:26:13;;;;;;;12.60;4.93;;;7.40;56.70;;;;;;4969985;28;20475;-82
2021/03/30 04:28:40;;;;;;;8.83;4.30;;;7.30;56.80;;;;;;4965879;28;20031;-82
2021/03/30 04:31:06;;;;;;;10.73;4.90;;;7.30;57.00;;;;;;4967635;28;20498;-82
2021/03/30 04:33:32;;;;;;;8.07;4.17;;;7.30;57.20;;;;;;4970680;28;20027;-83
2021/03/30 04:35:58;;;;;;;9.17;4.17;;;7.30;56.90;;;;;;4962661;28;20030;-83
2021/03/30 04:38:24;;;;;;;9.63;4.07;;;7.20;56.90;;;;;;4987960;28;20034;-83
2021/03/30 04:40:53;;;;;;;9.23;4.23;;;7.10;57.20;;;;;;4968049;28;20447;-82
2021/03/30 04:43:20;;;;;;;8.00;4.83;;;7.10;57.30;;;;;;4977945;28;20117;-82
2021/03/30 04:45:46;;;;;;;13.07;3.73;;;7.10;57.30;;;;;;4976827;28;20035;-82
2021/03/30 04:48:11;;;;;;;8.50;3.63;;;7.00;57.10;;;;;;4972859;28;20218;-82
2021/03/30 04:50:37;;;;;;;7.77;3.80;;;7.00;57.10;;;;;;4972324;28;20031;-82
2021/03/30 04:53:03;;;;;;;8.47;3.17;;;7.00;57.20;;;;;;4973340;28;20026;-83
2021/03/30 04:55:29;;;;;;;6.77;3.70;;;6.90;57.10;;;;;;4969988;28;20043;-82
2021/03/30 04:57:54;;;;;;;11.07;3.50;;;6.90;57.30;;;;;;4974141;28;20035;-83
2021/03/30 05:00:20;;;;;;;9.30;3.67;;;7.00;57.40;;;;;;4968078;28;20475;-83
2021/03/30 05:02:46;;;;;;;9.30;3.97;;;7.00;57.30;;;;;;4966885;28;20053;-82
2021/03/30 05:05:12;;;;;;;18.17;4.43;;;6.90;57.40;;;;;;4972256;28;20475;-83
2021/03/30 05:07:38;;;;;;;14.17;6.63;;;7.00;57.70;;;;;;4973811;28;20042;-83
2021/03/30 05:10:05;;;;;;;13.00;6.07;;;7.00;57.60;;;;;;4975810;28;20027;-82
2021/03/30 05:12:31;;;;;;;20.40;6.93;;;7.00;57.70;;;;;;4974874;28;20483;-83
2021/03/30 05:14:57;;;;;;;15.60;6.53;;;7.00;57.60;;;;;;4973490;28;20027;-83
2021/03/30 05:17:23;;;;;;;8.43;4.77;;;7.10;57.60;;;;;;4961563;28;20458;-83
2021/03/30 05:19:49;;;;;;;16.87;5.97;;;7.10;57.70;;;;;;4974757;28;20023;-82
2021/03/30 05:22:14;;;;;;;12.87;5.60;;;7.10;57.70;;;;;;4974835;28;20372;-82
2021/03/30 05:24:40;;;;;;;13.83;4.83;;;7.10;57.70;;;;;;4971226;28;20042;-82
2021/03/30 05:27:06;;;;;;;12.73;5.90;;;7.10;57.70;;;;;;4968165;28;20062;-83
2021/03/30 05:29:42;;;;;;;12.30;6.03;;;7.10;58.00;;;;;;4971128;28;20066;-83
2021/03/30 05:32:10;;;;;;;14.57;6.33;;;7.00;58.00;;;;;;4959398;28;20091;-81
2021/03/30 05:34:36;;;;;;;18.97;6.63;;;7.00;58.10;;;;;;4970506;28;20047;-82
2021/03/30 05:37:01;;;;;;;15.37;7.47;;;7.00;58.20;;;;;;4964138;28;20490;-82
2021/03/30 05:39:27;;;;;;;13.07;6.90;;;7.00;58.10;;;;;;4969200;28;20027;-82
2021/03/30 05:41:53;;;;;;;12.10;7.00;;;6.90;57.90;;;;;;4964554;28;20027;-82
2021/03/30 05:44:19;;;;;;;10.37;5.67;;;6.90;57.90;;;;;;4972587;28;20086;-82
2021/03/30 05:46:48;;;;;;;16.03;5.10;;;6.90;58.10;;;;;;4988851;28;20054;-82
2021/03/30 05:49:14;;;;;;;16.30;5.47;;;6.80;58.10;;;;;;4975172;28;20114;-83
2021/03/30 05:51:41;;;;;;;28.13;17.00;;;6.90;58.30;;;;;;4971033;28;20114;-82
2021/03/30 05:54:08;;;;;;;19.97;14.30;;;6.90;58.30;;;;;;4985525;28;20027;-83
2021/03/30 05:56:39;;;;;;;24.83;13.50;;;6.80;58.30;;;;;;4960295;28;20029;-83
2021/03/30 05:59:08;;;;;;;13.43;8.00;;;6.90;58.40;;;;;;4970725;28;20032;-82
2021/03/30 06:01:35;;;;;;;18.47;6.63;;;6.90;58.30;;;;;;4965110;28;20031;-82
2021/03/30 06:04:02;;;;;;;16.33;6.23;;;7.00;58.20;;;;;;4962018;28;20450;-82
2021/03/30 06:06:29;;;;;;;12.37;7.07;;;7.10;58.70;;;;;;4966336;28;21089;-83
2021/03/30 06:08:54;;;;;;;23.80;8.37;;;7.10;58.10;;;;;;4966206;28;20085;-83
2021/03/30 06:11:20;;;;;;;18.40;6.30;;;7.10;58.10;;;;;;4964487;28;20039;-82
2021/03/30 06:13:52;;;;;;;21.00;7.33;;;7.10;58.40;;;;;;4955877;28;20062;-83
2021/03/30 06:16:24;;;;;;;13.88;5.32;;;7.10;58.40;;;;;;4973309;28;20096;-81
2021/03/30 06:19:20;;;;;;;14.87;5.00;;;7.10;58.30;;;;;;4965173;28;20038;-81
2021/03/30 06:22:07;;;;;;;16.27;6.03;;;7.20;58.50;;;;;;4977061;28;20146;-81
2021/03/30 06:24:33;;;;;;;17.17;8.30;;;7.20;58.50;;;;;;4971660;28;20486;-81
2021/03/30 06:27:05;;;;;;;12.43;7.07;;;7.20;58.30;;;;;;4973146;28;20037;-81
2021/03/30 06:29:39;;;;;;;16.43;5.43;;;7.20;58.30;;;;;;4969138;28;20035;-82
2021/03/30 06:32:10;;;;;;;9.37;5.30;;;7.30;58.10;;;;;;4974686;28;20066;-82
2021/03/30 06:34:37;;;;;;;11.80;5.30;;;7.30;57.90;;;;;;4969812;28;20027;-83
2021/03/30 06:37:25;;;;;;;18.30;4.83;;;7.40;57.80;;;;;;4969716;28;20031;-83
2021/03/30 06:39:51;;;;;;;11.90;4.40;;;7.50;57.90;;;;;;4956235;28;20031;-83
2021/03/30 06:42:41;;;;;;;18.70;7.03;;;7.50;57.70;;;;;;4971621;28;20130;-83
2021/03/30 06:45:18;;;;;;;17.57;5.07;;;7.50;57.80;;;;;;4968602;28;20097;-83
2021/03/30 06:47:46;;;;;;;15.27;5.57;;;7.60;57.90;;;;;;4980698;28;20082;-83
2021/03/30 06:50:38;;;;;;;13.90;4.97;;;7.60;57.80;;;;;;4970707;28;20435;-83
2021/03/30 06:53:12;;;;;;;14.83;4.87;;;7.70;58.00;;;;;;4963419;28;20145;-83
2021/03/30 06:55:52;;;;;;;10.97;5.07;;;7.70;57.90;;;;;;4967395;28;20110;-83
2021/03/30 06:58:18;;;;;;;10.83;4.50;;;7.70;57.80;;;;;;4967335;28;20031;-82
2021/03/30 07:00:45;;;;;;;13.30;4.90;;;7.80;57.80;;;;;;4981455;28;20388;-82
2021/03/30 07:03:19;;;;;;;8.13;4.30;;;7.80;57.60;;;;;;4957240;28;20043;-82
2021/03/30 07:05:46;;;;;;;7.10;3.90;;;7.90;57.70;;;;;;4960396;28;20022;-81
2021/03/30 07:08:16;;;;;;;16.53;4.63;;;7.90;57.60;;;;;;4969065;28;20061;-82
2021/03/30 07:10:46;;;;;;;11.20;4.47;;;8.00;57.50;;;;;;4966440;28;20035;-82
2021/03/30 07:13:15;;;;;;;11.30;3.60;;;8.00;57.50;;;;;;4974352;28;20042;-81
2021/03/30 07:15:41;;;;;;;14.27;4.27;;;8.10;57.40;;;;;;4972308;28;20019;-82
2021/03/30 07:18:09;;;;;;;9.33;3.67;;;8.20;57.20;;;;;;4969385;28;20051;-82
2021/03/30 07:20:46;;;;;;;10.27;3.60;;;8.40;57.00;;;;;;4957699;28;20027;-81
2021/03/30 07:23:22;;;;;;;12.97;5.03;;;8.50;56.60;;;;;;4973191;28;20129;-82
2021/03/30 07:26:00;;;;;;;8.77;4.33;;;8.60;56.30;;;;;;4969683;28;20126;-82
2021/03/30 07:28:31;;;;;;;15.87;4.20;;;8.70;56.00;;;;;;4969807;28;20057;-82
2021/03/30 07:31:04;;;;;;;18.97;4.27;;;8.80;55.80;;;;;;4964462;28;20432;-82
2021/03/30 07:33:55;;;;;;;9.47;4.17;;;8.80;55.60;;;;;;4954612;28;20038;-82
2021/03/30 07:36:23;;;;;;;4.97;3.17;;;8.90;55.50;;;;;;4979304;28;20027;-82
2021/03/30 07:39:07;;;;;;;8.17;3.07;;;9.00;55.40;;;;;;4966398;28;20035;-82
2021/03/30 07:41:34;;;;;;;8.30;3.80;;;9.10;55.00;;;;;;4968991;28;20030;-82
2021/03/30 07:44:02;;;;;;;13.20;3.90;;;9.20;54.90;;;;;;4970673;28;20535;-83
2021/03/30 07:46:30;;;;;;;10.50;3.90;;;9.30;54.80;;;;;;4968835;28;20395;-82
2021/03/30 07:48:57;;;;;;;10.00;4.20;;;9.40;54.70;;;;;;4970225;28;20083;-82
2021/03/30 07:51:42;;;;;;;12.73;4.63;;;9.50;54.50;;;;;;4969292;28;20115;-82
2021/03/30 07:54:09;;;;;;;10.27;4.30;;;9.60;54.40;;;;;;4972061;28;20015;-82
2021/03/30 07:56:50;;;;;;;17.70;4.93;;;9.80;54.10;;;;;;4966996;28;20068;-82
2021/03/30 07:59:46;;;;;;;10.07;4.07;;;10.00;53.60;;;;;;4961622;28;20049;-82
2021/03/30 08:02:20;;;;;;;13.23;4.20;;;10.20;53.40;;;;;;4981071;28;20085;-82
2021/03/30 08:05:10;;;;;;;14.83;4.33;;;10.40;53.00;;;;;;4968806;28;20035;-82
2021/03/30 08:07:46;;;;;;;8.53;3.17;;;10.50;52.70;;;;;;4971500;28;20038;-82
2021/03/30 08:10:29;;;;;;;16.83;4.77;;;10.60;52.70;;;;;;4968682;28;20117;-82
2021/03/30 08:13:20;;;;;;;9.90;3.77;;;10.70;52.60;;;;;;4957728;28;20034;-82
2021/03/30 08:15:48;;;;;;;17.53;6.77;;;10.80;52.80;;;;;;4967622;28;20031;-82
2021/03/30 08:18:13;;;;;;;15.93;7.13;;;11.10;52.20;;;;;;4971663;28;20070;-82
2021/03/30 08:20:57;;;;;;;9.87;2.80;;;11.40;51.70;;;;;;4971716;28;20390;-83
2021/03/30 08:23:24;;;;;;;11.00;2.87;;;11.70;51.10;;;;;;4964835;28;20015;-82
2021/03/30 08:25:52;;;;;;;8.30;3.30;;;12.00;50.40;;;;;;4961792;28;20077;-82
2021/03/30 08:28:52;;;;;;;7.77;2.50;;;12.20;49.30;;;;;;4970794;28;20047;-83
2021/03/30 08:31:20;;;;;;;7.37;2.50;;;12.30;47.80;;;;;;4966165;28;20037;-82
2021/03/30 08:33:49;;;;;;;9.30;2.40;;;12.40;47.60;;;;;;4958714;28;20023;-82
2021/03/30 08:36:27;;;;;;;7.83;2.73;;;12.50;47.00;;;;;;4974641;28;20022;-82
2021/03/30 08:38:56;;;;;;;19.47;3.20;;;12.60;46.50;;;;;;4973359;28;20030;-82
2021/03/30 08:41:43;;;;;;;13.97;2.97;;;12.80;46.60;;;;;;4991435;28;20117;-82
2021/03/30 08:44:27;;;;;;;10.97;3.20;;;13.00;46.20;;;;;;4974909;28;20031;-82
2021/03/30 08:46:56;;;;;;;7.87;3.27;;;13.00;46.10;;;;;;4974024;28;20035;-81
2021/03/30 08:49:27;;;;;;;9.47;2.70;;;13.20;46.10;;;;;;4975954;28;20507;-82
2021/03/30 08:52:11;;;;;;;13.47;2.87;;;13.40;45.90;;;;;;4975332;28;20115;-82
2021/03/30 08:54:37;;;;;;;;;;;13.50;45.30;;;;;;4971786;28;20538;-82
2021/03/30 08:57:07;;;;;;;11.70;2.40;;;13.60;45.60;;;;;;4957190;28;20010;-82
2021/03/30 08:59:33;;;;;;;10.87;2.10;;;13.80;45.40;;;;;;4960456;28;20033;-82
2021/03/30 09:02:05;;;;;;;5.67;1.97;;;13.90;44.60;;;;;;4976022;28;20383;-82
2021/03/30 09:04:35;;;;;;;7.97;1.98;;;13.90;44.20;;;;;;4967907;28;20717;-82
2021/03/30 09:07:01;;;;;;;8.27;1.70;;;14.00;43.90;;;;;;4972804;28;20046;-84
2021/03/30 09:09:38;;;;;;;6.40;2.00;;;14.20;43.60;;;;;;4966709;28;20550;-83
2021/03/30 09:12:16;;;;;;;12.33;2.70;;;14.40;43.10;;;;;;4973295;28;20096;-83
2021/03/30 09:14:43;;;;;;;8.70;1.80;;;14.60;42.70;;;;;;4972431;28;20070;-83
2021/03/30 09:17:11;;;;;;;4.57;1.70;;;14.70;42.40;;;;;;4969963;28;20522;-84
2021/03/30 09:19:43;;;;;;;5.40;2.07;;;14.90;42.00;;;;;;4974616;28;20118;-83
2021/03/30 09:22:51;;;;;;;6.53;1.70;;;15.10;42.10;;;;;;4970829;28;20220;-84
2021/03/30 09:27:31;;;;;;;10.00;1.90;;;15.60;41.10;;;;;;4971266;28;20022;-84
2021/03/30 09:30:08;;;;;;;7.90;1.80;;;15.70;40.80;;;;;;4987149;28;20387;-83
2021/03/30 09:32:36;;;;;;;6.57;1.60;;;15.80;40.80;;;;;;4974879;28;20117;-84
2021/03/30 09:35:13;;;;;;;12.73;1.73;;;15.70;40.30;;;;;;4973262;28;20031;-84
2021/03/30 09:37:49;;;;;;;9.50;1.70;;;15.70;40.50;;;;;;4973914;28;20050;-84
2021/03/30 09:40:22;;;;;;;7.53;1.63;;;15.80;40.40;;;;;;4974469;28;20039;-84
2021/03/30 09:42:48;;;;;;;;;;;16.00;40.20;;;;;;4976125;28;20026;-84
2021/03/30 09:45:20;;;;;;;6.93;1.70;;;16.00;40.40;;;;;;4974561;28;20310;-84
2021/03/30 09:47:46;;;;;;;8.23;1.48;;;15.90;40.20;;;;;;4966498;28;20032;-84
2021/03/30 09:50:13;;;;;;;7.13;1.57;;;16.00;40.10;;;;;;4956429;28;20038;-83
2021/03/30 09:52:39;;;;;;;9.77;1.80;;;16.00;39.90;;;;;;4969927;28;20038;-83
2021/03/30 09:55:06;;;;;;;8.20;1.73;;;16.00;39.50;;;;;;4974775;28;20027;-83
2021/03/30 09:57:33;;;;;;;6.40;1.40;;;16.10;39.30;;;;;;4969628;28;20031;-83
2021/03/30 10:00:00;;;;;;;11.47;2.20;;;16.20;39.20;;;;;;4970388;28;20031;-83
2021/03/30 10:02:34;;;;;;;5.07;1.45;;;16.40;38.90;;;;;;4994474;28;20023;-83
2021/03/30 10:05:05;;;;;;;7.70;1.90;;;16.50;38.30;;;;;;4990983;28;20398;-83
2021/03/30 10:07:36;;;;;;;11.10;2.72;;;16.50;38.60;;;;;;4967749;28;20043;-84
2021/03/30 10:10:05;;;;;;;9.43;1.80;;;16.70;38.50;;;;;;4961585;28;20036;-83
2021/03/30 10:12:39;;;;;;;10.23;1.90;;;16.70;38.60;;;;;;4961710;28;20027;-83
2021/03/30 10:15:06;;;;;;;9.80;1.55;;;17.00;38.70;;;;;;4975605;28;20511;-84
2021/03/30 10:17:32;;;;;;;6.25;1.60;;;17.30;37.70;;;;;;4974840;28;20374;-83
2021/03/30 10:19:59;;;;;;;8.73;1.80;;;17.30;37.10;;;;;;4964464;28;20033;-83
2021/03/30 10:22:34;;;;;;;3.28;1.50;;;17.30;36.70;;;;;;4972652;28;20062;-84
2021/03/30 10:25:13;;;;;;;5.57;1.48;;;17.50;36.60;;;;;;4954754;28;20046;-84
2021/03/30 10:27:46;;;;;;;6.43;1.50;;;17.60;36.00;;;;;;4972111;28;20035;-84
2021/03/30 10:30:13;;;;;;;3.88;1.30;;;17.70;35.60;;;;;;4964697;28;20444;-84
2021/03/30 10:32:48;;;;;;;9.32;1.58;;;17.90;35.70;;;;;;4956713;28;20166;-84
2021/03/30 10:35:14;;;;;;;3.60;1.75;;;18.00;35.70;;;;;;4958143;28;20031;-84
2021/03/30 10:37:42;;;;;;;4.70;1.73;;;18.00;35.70;;;;;;4968401;28;20395;-84
2021/03/30 10:40:08;;;;;;;7.13;2.00;;;18.10;35.70;;;;;;4976640;28;20042;-84
2021/03/30 10:42:38;;;;;;;3.03;1.33;;;18.30;35.40;;;;;;4986547;28;20026;-84
2021/03/30 10:45:06;;;;;;;7.25;1.42;;;18.40;35.00;;;;;;4972842;28;20113;-84
2021/03/30 10:47:40;;;;;;;9.73;1.63;;;18.50;34.80;;;;;;4970672;28;20019;-83
2021/03/30 10:50:13;;;;;;;5.20;1.60;;;18.60;34.50;;;;;;4970470;28;20067;-83
2021/03/30 10:52:39;;;;;;;;;;;18.70;34.60;;;;;;4973830;28;20030;-83
2021/03/30 10:55:17;;;;;;;8.98;2.45;;;18.80;35.00;;;;;;4973407;28;20290;-84
2021/03/30 10:57:46;;;;;;;14.40;2.03;;;19.00;35.10;;;;;;4974556;28;20081;-84
2021/03/30 11:00:14;;;;;;;8.32;1.77;;;19.20;34.70;;;;;;4970856;28;20045;-84
2021/03/30 11:02:40;;;;;;;9.98;2.28;;;19.40;34.30;;;;;;4966718;28;20068;-83
2021/03/30 11:05:07;;;;;;;5.07;1.50;;;19.60;34.00;;;;;;4969249;28;20530;-84
2021/03/30 11:07:32;;;;;;;5.45;1.88;;;19.80;33.80;;;;;;4965875;28;20113;-84
2021/03/30 11:09:58;;;;;;;5.13;1.70;;;19.80;33.20;;;;;;4965076;28;20031;-84
2021/03/30 11:12:24;;;;;;;5.40;1.10;;;19.90;33.10;;;;;;4966793;28;20076;-84
2021/03/30 11:14:50;;;;;;;3.03;1.08;;;20.00;33.20;;;;;;4970850;28;20030;-84
2021/03/30 11:17:15;;;;;;;4.20;1.33;;;20.10;33.20;;;;;;4985173;28;20027;-84
2021/03/30 11:19:41;;;;;;;5.95;1.50;;;20.10;33.10;;;;;;4970293;28;20023;-84
2021/03/30 11:22:08;;;;;;;5.00;1.20;;;20.20;33.00;;;;;;4970173;28;20034;-84
2021/03/30 11:24:39;;;;;;;7.43;1.83;;;20.30;33.10;;;;;;4968827;28;20598;-84
2021/03/30 11:27:06;;;;;;;5.00;1.80;;;20.40;32.90;;;;;;4968933;28;20035;-83
2021/03/30 11:39:54;;;;;;;4.00;1.20;;;20.80;31.50;;;;;;4967551;28;20101;-84
2021/03/30 11:42:20;;;;;;;6.30;1.20;;;20.80;31.30;;;;;;4969963;28;20046;-84
2021/03/30 11:44:46;;;;;;;6.47;1.13;;;20.90;31.30;;;;;;4965519;28;20118;-83
2021/03/30 11:47:12;;;;;;;7.05;1.38;;;21.00;31.20;;;;;;4970194;28;20118;-84
2021/03/30 11:49:38;;;;;;;1.92;1.00;;;21.10;31.00;;;;;;4969453;28;20031;-84
2021/03/30 11:52:05;;;;;;;12.27;1.33;;;21.10;30.40;;;;;;4968998;28;20037;-84
2021/03/30 11:54:31;;;;;;;3.60;1.30;;;21.10;29.70;;;;;;4969189;28;20105;-83
2021/03/30 11:56:57;;;;;;;4.60;1.15;;;21.20;29.60;;;;;;4978767;28;20035;-84
2021/03/30 11:59:23;;;;;;;3.88;0.90;;;21.30;29.40;;;;;;4958615;28;20387;-84
2021/03/30 12:01:49;;;;;;;9.18;1.08;;;21.30;29.00;;;;;;4976279;28;20033;-84
2021/03/30 12:04:15;;;;;;;6.15;1.35;;;21.40;29.00;;;;;;4971849;28;20422;-83
2021/03/30 12:06:40;;;;;;;4.55;1.20;;;21.40;29.20;;;;;;4974038;28;20802;-84
2021/03/30 12:09:07;;;;;;;4.93;1.65;;;21.40;29.10;;;;;;4969753;28;20044;-84
2021/03/30 12:11:33;;;;;;;5.68;1.25;;;21.60;29.10;;;;;;4988657;28;20030;-84
2021/03/30 12:14:00;;;;;;;2.95;1.00;;;21.60;29.00;;;;;;4967880;28;20023;-84
2021/03/30 12:16:28;;;;;;;8.10;1.00;;;21.70;28.90;;;;;;4959602;28;20078;-84
2021/03/30 12:18:54;;;;;;;6.53;1.10;;;21.70;28.60;;;;;;4960754;28;20531;-81
2021/03/30 12:21:21;;;;;;;7.18;1.60;;;21.70;28.20;;;;;;4966183;28;20022;-84
2021/03/30 12:23:47;;;;;;;7.57;1.00;;;21.70;28.20;;;;;;4979420;28;20031;-83
2021/03/30 12:26:13;;;;;;;6.07;1.55;;;21.70;28.10;;;;;;4961795;28;20038;-83
2021/03/30 12:28:39;;;;;;;8.32;1.40;;;21.80;28.20;;;;;;4971231;28;20019;-83
2021/03/30 12:31:06;;;;;;;6.90;1.55;;;21.90;28.30;;;;;;4967301;28;20049;-83
2021/03/30 12:33:31;;;;;;;6.32;1.45;;;21.90;28.60;;;;;;4969529;28;20100;-84
2021/03/30 12:36:03;;;;;;;4.32;1.10;;;22.00;28.90;;;;;;4961542;28;20437;-83
2021/03/30 12:38:29;;;;;;;4.28;0.90;;;22.00;29.00;;;;;;4964281;28;20388;-83
2021/03/30 12:40:54;;;;;;;4.40;1.30;;;22.10;28.90;;;;;;4969240;28;20030;-84
2021/03/30 12:43:20;;;;;;;1.98;1.40;;;22.00;28.70;;;;;;4968743;28;20034;-84
2021/03/30 12:45:46;;;;;;;5.40;1.95;;;22.00;28.60;;;;;;4972029;28;20063;-83
2021/03/30 12:48:13;;;;;;;2.65;0.95;;;22.00;28.40;;;;;;4988151;28;20030;-83
2021/03/30 12:50:39;;;;;;;2.83;1.20;;;22.10;28.30;;;;;;4968449;28;20019;-83
2021/03/30 12:53:06;;;;;;;8.52;1.60;;;22.00;28.10;;;;;;4981332;28;20037;-84
2021/03/30 12:55:31;;;;;;;2.17;0.90;;;22.10;28.30;;;;;;4971855;28;20027;-84
2021/03/30 12:57:57;;;;;;;2.88;1.25;;;22.20;28.30;;;;;;4971757;28;20117;-83
2021/03/30 13:00:23;;;;;;;5.28;1.10;;;22.20;28.00;;;;;;4968572;28;20442;-84
2021/03/30 13:02:50;;;;;;;7.75;1.20;;;22.20;27.90;;;;;;4971198;28;20042;-84
2021/03/30 13:05:16;;;;;;;7.40;1.30;;;22.20;27.70;;;;;;4972981;28;20023;-84
2021/03/30 13:07:42;;;;;;;6.88;1.02;;;22.20;27.60;;;;;;4961248;28;20146;-83
2021/03/30 13:10:09;;;;;;;3.60;1.20;;;22.20;27.60;;;;;;4972975;28;20453;-84
2021/03/30 13:12:35;;;;;;;7.25;1.25;;;22.20;27.50;;;;;;4966286;28;20122;-84
2021/03/30 13:15:02;;;;;;;3.88;1.55;;;22.30;27.80;;;;;;4978115;28;20548;-84
2021/03/30 13:17:28;;;;;;;5.32;1.60;;;22.30;27.70;;;;;;4991566;28;20497;-83